createdAt,value
2018-09-24T00:00:51.419Z,79.64
2018-09-24T00:03:18.353Z,78.92
2018-09-24T00:05:45.235Z,79.33
2018-09-24T00:08:12.164Z,78.45
2018-09-24T00:10:39.124Z,78.61
2018-09-24T00:13:06.120Z,78.86
2018-09-24T00:15:33.067Z,77.35
2018-09-24T00:18:00.004Z,76.84
2018-09-24T00:20:26.959Z,77.00
2018-09-24T00:22:53.904Z,76.97
2018-09-24T00:25:20.791Z,77.10
2018-09-24T00:27:47.730Z,77.33
2018-09-24T00:30:14.679Z,76.39
2018-09-24T00:32:41.627Z,77.17
2018-09-24T00:35:08.533Z,77.36
2018-09-24T00:37:35.460Z,77.04
2018-09-24T00:40:02.435Z,77.53
2018-09-24T00:42:29.368Z,76.94
2018-09-24T00:44:56.328Z,75.53
2018-09-24T00:47:23.283Z,76.84
2018-09-24T00:49:50.148Z,76.10
2018-09-24T00:52:17.115Z,74.40
2018-09-24T00:54:44.048Z,75.34
2018-09-24T00:57:11.007Z,73.69
2018-09-24T00:59:37.987Z,73.38
2018-09-24T01:02:04.836Z,73.97
2018-09-24T01:04:31.775Z,72.50
2018-09-24T01:06:58.812Z,73.54
2018-09-24T01:09:25.699Z,74.42
2018-09-24T01:11:52.647Z,76.51
2018-09-24T01:14:19.615Z,77.57
2018-09-24T01:16:46.568Z,76.47
2018-09-24T01:19:13.528Z,76.78
2018-09-24T01:21:40.501Z,77.51
2018-09-24T01:24:07.354Z,79.03
2018-09-24T01:26:34.303Z,79.38
2018-09-24T01:29:01.255Z,80.38
2018-09-24T01:31:28.207Z,80.13
2018-09-24T01:33:55.060Z,79.63
2018-09-24T01:36:22.027Z,79.24
2018-09-24T01:38:48.985Z,79.81
2018-09-24T01:41:15.931Z,78.61
2018-09-24T01:43:42.791Z,79.35
2018-09-24T01:46:09.740Z,79.33
2018-09-24T01:48:36.695Z,80.00
2018-09-24T01:51:03.707Z,79.47
2018-09-24T01:53:30.620Z,80.09
2018-09-24T01:55:57.581Z,81.80
2018-09-24T01:58:24.532Z,80.86
2018-09-24T02:00:51.547Z,81.36
2018-09-24T02:03:19.473Z,81.88
2018-09-24T02:05:46.330Z,82.02
2018-09-24T02:08:13.297Z,81.47
2018-09-24T02:10:40.235Z,79.63
2018-09-24T02:13:07.194Z,79.26
2018-09-24T02:15:34.213Z,79.57
2018-09-24T02:18:01.310Z,79.31
2018-09-24T02:20:28.299Z,79.12
2018-09-24T02:22:55.238Z,80.87
2018-09-24T02:25:22.232Z,80.44
2018-09-24T02:27:49.223Z,82.07
2018-09-24T02:30:17.219Z,81.99
2018-09-24T02:32:46.183Z,81.51
2018-09-24T02:35:13.380Z,81.75
2018-09-24T02:37:40.276Z,81.78
2018-09-24T02:40:15.199Z,81.04
2018-09-24T02:42:42.171Z,81.64
2018-09-24T02:45:09.177Z,81.75
2018-09-24T02:47:36.028Z,81.49
2018-09-24T02:50:02.952Z,82.24
2018-09-24T02:52:29.889Z,80.99
2018-09-24T02:54:56.835Z,82.86
2018-09-24T02:57:23.819Z,82.39
2018-09-24T02:59:50.767Z,82.24
2018-09-24T03:02:17.628Z,82.12
2018-09-24T03:04:44.579Z,80.80
2018-09-24T03:07:11.532Z,83.34
2018-09-24T03:09:38.506Z,83.52
2018-09-24T03:12:05.396Z,83.66
2018-09-24T03:14:32.343Z,83.61
2018-09-24T03:16:59.279Z,83.27
2018-09-24T03:19:26.208Z,84.04
2018-09-24T03:21:53.068Z,83.23
2018-09-24T03:24:20.023Z,83.24
2018-09-24T03:26:46.985Z,84.01
2018-09-24T03:29:18.879Z,83.71
2018-09-24T03:31:45.878Z,83.33
2018-09-24T03:34:13.077Z,83.66
2018-09-24T03:36:40.043Z,84.53
2018-09-24T03:39:06.984Z,83.89
2018-09-24T03:41:33.972Z,83.87
2018-09-24T03:44:01.944Z,84.37
2018-09-24T03:46:28.812Z,85.23
2018-09-24T03:48:55.743Z,85.77
2018-09-24T03:51:22.699Z,84.67
2018-09-24T03:53:49.660Z,84.62
2018-09-24T03:56:16.617Z,83.18
2018-09-24T03:58:43.571Z,84.16
2018-09-24T04:01:10.532Z,84.99
2018-09-24T04:03:37.484Z,84.30
2018-09-24T04:06:11.212Z,85.21
2018-09-24T04:08:43.855Z,86.55
2018-09-24T04:11:16.591Z,86.93
2018-09-24T04:13:49.232Z,85.24
2018-09-24T04:16:21.984Z,87.51
2018-09-24T04:18:54.663Z,87.63
2018-09-24T04:21:27.541Z,87.00
2018-09-24T04:24:00.178Z,86.93
2018-09-24T04:26:32.891Z,85.89
2018-09-24T04:29:05.503Z,85.88
2018-09-24T04:31:38.097Z,84.51
2018-09-24T04:34:11.718Z,84.42
2018-09-24T04:36:44.395Z,85.64
2018-09-24T04:39:17.079Z,85.29
2018-09-24T04:41:49.831Z,84.03
2018-09-24T04:44:22.532Z,86.29
2018-09-24T04:46:55.220Z,86.73
2018-09-24T04:49:28.060Z,86.80
2018-09-24T04:52:00.955Z,86.62
2018-09-24T04:54:34.711Z,85.25
2018-09-24T04:57:07.387Z,85.83
2018-09-24T04:59:40.029Z,86.28
2018-09-24T05:02:12.581Z,85.51
2018-09-24T05:04:45.336Z,84.55
2018-09-24T05:07:18.055Z,84.48
2018-09-24T05:09:50.764Z,82.95
2018-09-24T05:12:23.384Z,84.46
2018-09-24T05:14:56.096Z,83.42
2018-09-24T05:17:29.759Z,83.72
2018-09-24T05:20:02.380Z,83.00
2018-09-24T05:22:36.119Z,83.81
2018-09-24T05:25:08.679Z,83.61
2018-09-24T05:27:41.414Z,83.56
2018-09-24T05:30:14.093Z,83.53
2018-09-24T05:32:47.760Z,82.10
2018-09-24T05:35:20.376Z,83.56
2018-09-24T05:37:53.095Z,84.28
2018-09-24T05:40:25.712Z,84.12
2018-09-24T05:42:58.616Z,84.17
2018-09-24T05:45:31.367Z,83.32
2018-09-24T05:48:04.078Z,83.18
2018-09-24T05:50:36.787Z,83.93
2018-09-24T05:53:09.344Z,84.07
2018-09-24T05:55:42.063Z,83.51
2018-09-24T05:58:14.623Z,82.97
2018-09-24T06:00:47.292Z,83.30
2018-09-24T06:03:20.027Z,83.48
2018-09-24T06:05:52.643Z,83.69
2018-09-24T06:08:25.192Z,81.72
2018-09-24T06:10:57.855Z,82.66
2018-09-24T06:13:30.633Z,83.03
2018-09-24T06:16:03.363Z,82.59
2018-09-24T06:18:36.107Z,83.55
2018-09-24T06:21:08.793Z,82.91
2018-09-24T06:23:41.440Z,82.70
2018-09-24T06:26:14.129Z,82.53
2018-09-24T06:28:46.892Z,82.63
2018-09-24T06:31:19.536Z,83.03
2018-09-24T06:33:52.219Z,83.49
2018-09-24T06:36:24.794Z,82.31
2018-09-24T06:38:57.481Z,80.27
2018-09-24T06:41:30.223Z,81.61
2018-09-24T06:44:02.919Z,81.82
2018-09-24T06:46:35.557Z,82.45
2018-09-24T06:49:08.248Z,81.92
2018-09-24T06:51:40.967Z,80.38
2018-09-24T06:54:13.656Z,79.75
2018-09-24T06:56:46.272Z,79.72
2018-09-24T06:59:18.987Z,80.08
2018-09-24T07:01:52.588Z,79.56
2018-09-24T07:04:25.122Z,80.29
2018-09-24T07:06:57.836Z,79.28
2018-09-24T07:09:30.478Z,79.45
2018-09-24T07:12:03.171Z,78.72
2018-09-24T07:14:35.656Z,78.21
2018-09-24T07:17:08.400Z,78.05
2018-09-24T07:19:41.023Z,77.82
2018-09-24T07:22:13.735Z,77.15
2018-09-24T07:24:46.407Z,75.64
2018-09-24T07:27:19.187Z,76.88
2018-09-24T07:29:51.860Z,75.36
2018-09-24T07:32:24.536Z,74.72
2018-09-24T07:34:57.165Z,72.87
2018-09-24T07:37:30.004Z,73.36
2018-09-24T07:40:02.770Z,73.68
2018-09-24T07:42:35.391Z,74.79
2018-09-24T07:45:08.051Z,74.47
2018-09-24T07:47:40.552Z,74.82
2018-09-24T07:50:13.262Z,73.71
2018-09-24T07:52:45.978Z,73.43
2018-09-24T07:55:18.763Z,72.27
2018-09-24T07:57:51.589Z,72.03
2018-09-24T08:00:24.175Z,72.15
2018-09-24T08:02:56.849Z,72.93
2018-09-24T08:05:29.512Z,72.81
2018-09-24T08:08:02.275Z,72.48
2018-09-24T08:10:34.839Z,72.46
2018-09-24T08:13:07.589Z,69.81
2018-09-24T08:15:40.248Z,70.95
2018-09-24T08:18:12.904Z,72.17
2018-09-24T08:20:45.559Z,70.39
2018-09-24T08:23:18.120Z,68.82
2018-09-24T08:25:50.770Z,69.40
2018-09-24T08:28:23.580Z,68.86
2018-09-24T08:30:56.282Z,68.39
2018-09-24T08:33:28.942Z,67.23
2018-09-24T08:36:01.653Z,66.85
2018-09-24T08:38:34.268Z,65.35
2018-09-24T08:41:07.920Z,64.71
2018-09-24T08:43:40.516Z,63.25
2018-09-24T08:46:13.170Z,62.88
2018-09-24T08:48:45.732Z,63.67
2018-09-24T08:51:18.380Z,64.64
2018-09-24T08:53:51.020Z,63.35
2018-09-24T08:56:23.640Z,62.70
2018-09-24T08:58:56.272Z,64.03
2018-09-24T09:01:28.970Z,62.74
2018-09-24T09:04:03.668Z,62.30
2018-09-24T09:06:36.344Z,63.81
2018-09-24T09:09:11.237Z,64.20
2018-09-24T09:11:43.960Z,64.14
2018-09-24T09:14:17.702Z,62.37
2018-09-24T09:16:50.346Z,60.25
2018-09-24T09:19:24.000Z,57.14
2018-09-24T09:21:56.695Z,57.46
2018-09-24T09:24:29.315Z,56.18
2018-09-24T09:27:02.054Z,56.05
2018-09-24T09:29:34.926Z,55.41
2018-09-24T09:32:07.536Z,53.79
2018-09-24T09:34:40.233Z,55.59
2018-09-24T09:37:12.948Z,53.56
2018-09-24T09:39:45.409Z,54.15
2018-09-24T09:42:18.051Z,55.40
2018-09-24T09:44:50.787Z,57.81
2018-09-24T09:47:23.407Z,57.42
2018-09-24T09:49:56.103Z,54.17
2018-09-24T09:52:28.875Z,52.90
2018-09-24T09:55:01.656Z,54.11
2018-09-24T09:57:34.371Z,51.99
2018-09-24T10:00:07.039Z,57.01
2018-09-24T10:02:39.712Z,53.53
2018-09-24T10:05:12.475Z,50.63
2018-09-24T10:07:45.174Z,48.95
2018-09-24T10:10:17.859Z,49.42
2018-09-24T10:12:50.576Z,52.12
2018-09-24T10:15:23.216Z,54.40
2018-09-24T10:17:56.207Z,52.35
2018-09-24T10:20:28.819Z,49.92
2018-09-24T10:23:01.268Z,53.93
2018-09-24T10:25:34.056Z,53.32
2018-09-24T10:28:06.774Z,50.22
2018-09-24T10:30:39.487Z,48.06
2018-09-24T10:33:12.259Z,46.51
2018-09-24T10:35:45.044Z,49.96
2018-09-24T10:38:17.737Z,47.73
2018-09-24T10:40:50.433Z,47.14
2018-09-24T10:43:24.143Z,48.36
2018-09-24T10:45:56.991Z,52.62
2018-09-24T10:48:29.579Z,47.71
2018-09-24T10:51:02.196Z,47.91
2018-09-24T10:53:34.914Z,44.94
2018-09-24T10:56:07.447Z,46.50
2018-09-24T10:58:40.144Z,44.97
2018-09-24T11:01:12.934Z,43.08
2018-09-24T11:03:45.627Z,46.63
2018-09-24T11:06:18.296Z,43.81
2018-09-24T11:08:50.958Z,45.05
2018-09-24T11:11:23.698Z,43.66
2018-09-24T11:13:56.396Z,45.51
2018-09-24T11:16:29.232Z,46.78
2018-09-24T11:19:01.640Z,51.10
2018-09-24T11:21:34.367Z,52.25
2018-09-24T11:24:07.060Z,49.54
2018-09-24T11:26:39.743Z,50.03
2018-09-24T11:29:12.514Z,49.69
2018-09-24T11:31:45.236Z,47.38
2018-09-24T11:34:19.948Z,45.11
2018-09-24T11:36:52.660Z,43.41
2018-09-24T11:39:25.379Z,41.13
2018-09-24T11:41:58.103Z,42.48
2018-09-24T11:44:30.852Z,45.25
2018-09-24T11:47:04.675Z,46.37
2018-09-24T11:49:37.345Z,41.87
2018-09-24T11:52:10.115Z,40.80
2018-09-24T11:54:42.854Z,42.06
2018-09-24T11:57:15.622Z,42.78
2018-09-24T11:59:48.160Z,44.50
2018-09-24T12:02:20.844Z,47.36
2018-09-24T12:04:53.494Z,48.22
2018-09-24T12:07:27.235Z,47.22
2018-09-24T12:09:59.947Z,49.65
2018-09-24T12:12:32.746Z,45.74
2018-09-24T12:15:05.408Z,44.35
2018-09-24T12:17:38.069Z,44.68
2018-09-24T12:20:10.779Z,44.11
2018-09-24T12:22:43.538Z,45.54
2018-09-24T12:25:16.252Z,46.98
2018-09-24T12:27:48.875Z,46.65
2018-09-24T12:30:21.557Z,47.57
2018-09-24T12:32:54.231Z,48.84
2018-09-24T12:35:27.004Z,48.26
2018-09-24T12:38:00.675Z,47.62
2018-09-24T12:40:33.474Z,44.61
2018-09-24T12:43:06.043Z,42.75
2018-09-24T12:45:38.603Z,43.47
2018-09-24T12:48:11.437Z,42.04
2018-09-24T12:50:44.111Z,42.51
2018-09-24T12:53:17.961Z,43.02
2018-09-24T12:55:50.521Z,42.60
2018-09-24T12:58:23.235Z,46.19
2018-09-24T13:00:55.955Z,47.65
2018-09-24T13:03:28.719Z,47.98
2018-09-24T13:06:01.535Z,44.69
2018-09-24T13:08:34.309Z,46.21
2018-09-24T13:11:07.950Z,46.29
2018-09-24T13:13:40.708Z,43.99
2018-09-24T13:16:13.277Z,43.15
2018-09-24T13:18:45.967Z,42.10
2018-09-24T13:21:18.715Z,43.92
2018-09-24T13:23:51.428Z,40.47
2018-09-24T13:26:24.185Z,42.08
2018-09-24T13:28:56.746Z,42.43
2018-09-24T13:31:29.296Z,40.95
2018-09-24T13:34:01.975Z,40.75
2018-09-24T13:36:34.772Z,38.67
2018-09-24T13:39:07.299Z,38.78
2018-09-24T13:41:39.935Z,41.59
2018-09-24T13:44:12.676Z,40.16
2018-09-24T13:46:45.348Z,41.16
2018-09-24T13:49:17.942Z,45.04
2018-09-24T13:51:50.507Z,43.51
2018-09-24T13:54:23.268Z,45.19
2018-09-24T13:56:56.016Z,44.52
2018-09-24T13:59:28.550Z,44.14
2018-09-24T14:02:01.148Z,45.24
2018-09-24T14:04:34.862Z,42.06
2018-09-24T14:07:07.504Z,42.98
2018-09-24T14:09:40.016Z,43.43
2018-09-24T14:12:13.688Z,43.31
2018-09-24T14:14:46.508Z,42.20
2018-09-24T14:17:19.245Z,40.76
2018-09-24T14:19:51.845Z,41.33
2018-09-24T14:22:24.399Z,42.31
2018-09-24T14:24:57.047Z,38.98
2018-09-24T14:27:29.711Z,40.55
2018-09-24T14:30:02.515Z,41.72
2018-09-24T14:32:35.234Z,41.15
2018-09-24T14:35:07.912Z,40.15
2018-09-24T14:37:40.803Z,41.20
2018-09-24T14:40:13.606Z,40.87
2018-09-24T14:42:46.127Z,40.68
2018-09-24T14:45:18.823Z,41.12
2018-09-24T14:47:52.574Z,40.28
2018-09-24T14:50:25.187Z,40.54
2018-09-24T14:52:58.095Z,41.71
2018-09-24T14:55:30.863Z,40.42
2018-09-24T14:58:03.560Z,40.79
2018-09-24T15:00:36.278Z,40.54
2018-09-24T15:03:08.830Z,42.12
2018-09-24T15:05:41.563Z,43.64
2018-09-24T15:08:15.196Z,42.51
2018-09-24T15:10:48.036Z,42.59
2018-09-24T15:13:20.656Z,40.43
2018-09-24T15:15:53.319Z,41.44
2018-09-24T15:18:26.043Z,41.55
2018-09-24T15:20:58.779Z,41.26
2018-09-24T15:23:31.499Z,42.01
2018-09-24T15:26:04.264Z,41.94
2018-09-24T15:28:37.005Z,42.41
2018-09-24T15:31:09.754Z,43.40
2018-09-24T15:33:44.565Z,45.67
2018-09-24T15:36:17.179Z,45.65
2018-09-24T15:38:49.816Z,44.22
2018-09-24T15:41:22.568Z,44.91
2018-09-24T15:43:55.278Z,44.36
2018-09-24T15:46:27.972Z,43.53
2018-09-24T15:49:00.579Z,44.73
2018-09-24T15:51:33.152Z,43.23
2018-09-24T15:54:05.795Z,43.92
2018-09-24T15:56:38.577Z,45.38
2018-09-24T15:59:12.402Z,45.16
2018-09-24T16:01:45.184Z,45.33
2018-09-24T16:04:17.940Z,45.49
2018-09-24T16:06:56.313Z,44.93
2018-09-24T16:09:28.998Z,42.74
2018-09-24T16:12:01.740Z,45.93
2018-09-24T16:14:34.528Z,46.44
2018-09-24T16:17:07.201Z,46.52
2018-09-24T16:19:39.900Z,47.79
2018-09-24T16:22:12.752Z,46.42
2018-09-24T16:24:45.587Z,47.64
2018-09-24T16:27:18.232Z,49.71
2018-09-24T16:29:51.977Z,48.05
2018-09-24T16:32:24.735Z,47.56
2018-09-24T16:34:57.352Z,47.69
2018-09-24T16:37:30.187Z,49.71
2018-09-24T16:40:02.669Z,47.54
2018-09-24T16:42:35.290Z,48.09
2018-09-24T16:45:07.972Z,50.41
2018-09-24T16:47:40.639Z,51.94
2018-09-24T16:50:13.316Z,51.80
2018-09-24T16:52:46.038Z,52.17
2018-09-24T16:55:18.735Z,52.89
2018-09-24T16:57:52.538Z,53.45
2018-09-24T17:00:25.320Z,54.29
2018-09-24T17:02:58.057Z,56.46
2018-09-24T17:05:30.660Z,56.34
2018-09-24T17:08:03.262Z,56.21
2018-09-24T17:10:35.784Z,53.78
2018-09-24T17:13:08.476Z,55.44
2018-09-24T17:15:41.301Z,55.49
2018-09-24T17:18:13.939Z,55.00
2018-09-24T17:20:46.616Z,55.58
2018-09-24T17:23:19.263Z,56.61
2018-09-24T17:25:51.927Z,57.57
2018-09-24T17:28:24.719Z,57.02
2018-09-24T17:30:57.337Z,61.68
2018-09-24T17:33:30.187Z,65.62
2018-09-24T17:36:02.848Z,63.92
2018-09-24T17:38:35.565Z,64.67
2018-09-24T17:41:08.027Z,63.08
2018-09-24T17:43:40.751Z,65.87
2018-09-24T17:46:13.669Z,64.34
2018-09-24T17:48:46.305Z,64.65
2018-09-24T17:51:19.066Z,63.02
2018-09-24T17:53:51.757Z,62.92
2018-09-24T17:56:24.726Z,64.14
2018-09-24T17:58:57.480Z,63.55
2018-09-24T18:01:30.239Z,65.38
2018-09-24T18:04:03.088Z,61.79
2018-09-24T18:06:37.847Z,64.25
2018-09-24T18:09:17.088Z,63.98
2018-09-24T18:11:49.715Z,62.80
2018-09-24T18:14:22.281Z,63.55
2018-09-24T18:16:55.189Z,64.31
2018-09-24T18:19:27.828Z,63.04
2018-09-24T18:22:00.520Z,64.13
2018-09-24T18:24:33.493Z,65.95
2018-09-24T18:27:06.352Z,65.77
2018-09-24T18:29:39.068Z,64.71
2018-09-24T18:32:11.853Z,64.85
2018-09-24T18:34:44.445Z,66.09
2018-09-24T18:37:24.387Z,66.45
2018-09-24T18:39:57.037Z,68.31
2018-09-24T18:42:29.799Z,67.16
2018-09-24T18:45:02.299Z,68.63
2018-09-24T18:47:35.138Z,71.17
2018-09-24T18:50:08.323Z,72.07
2018-09-24T18:52:41.203Z,71.98
2018-09-24T18:55:13.962Z,71.13
2018-09-24T18:57:47.677Z,70.87
2018-09-24T19:00:20.264Z,72.25
2018-09-24T19:02:53.934Z,70.55
2018-09-24T19:05:26.625Z,70.51
2018-09-24T19:07:59.460Z,70.66
2018-09-24T19:10:32.125Z,70.86
2018-09-24T19:13:06.792Z,70.62
2018-09-24T19:15:40.304Z,71.07
2018-09-24T19:18:13.004Z,70.74
2018-09-24T19:20:45.584Z,71.67
2018-09-24T19:23:18.154Z,72.76
2018-09-24T19:25:51.454Z,73.50
2018-09-24T19:28:24.689Z,73.30
2018-09-24T19:30:58.408Z,71.94
2018-09-24T19:33:31.096Z,72.82
2018-09-24T19:36:05.072Z,72.38
2018-09-24T19:38:37.855Z,71.23
2018-09-24T19:41:10.492Z,70.16
2018-09-24T19:43:43.219Z,69.81
2018-09-24T19:46:15.907Z,71.93
2018-09-24T19:48:48.640Z,71.13
2018-09-24T19:51:21.184Z,70.80
2018-09-24T19:53:53.877Z,72.91
2018-09-24T19:56:27.105Z,73.11
2018-09-24T19:58:59.813Z,72.71
2018-09-24T20:01:32.732Z,71.81
2018-09-24T20:04:06.296Z,73.05
2018-09-24T20:06:38.980Z,72.62
2018-09-24T20:09:13.033Z,73.72
2018-09-24T20:11:45.591Z,73.69
2018-09-24T20:14:18.304Z,74.08
2018-09-24T20:16:51.054Z,73.15
2018-09-24T20:19:23.635Z,73.09
2018-09-24T20:21:56.347Z,73.76
2018-09-24T20:24:29.043Z,73.67
2018-09-24T20:27:01.807Z,74.09
2018-09-24T20:29:38.399Z,73.25
2018-09-24T20:32:11.090Z,71.72
2018-09-24T20:34:43.587Z,71.00
2018-09-24T20:37:17.254Z,70.54
2018-09-24T20:39:49.872Z,69.71
2018-09-24T20:42:22.559Z,72.02
2018-09-24T20:44:55.026Z,72.91
2018-09-24T20:47:27.759Z,72.89
2018-09-24T20:50:00.331Z,72.89
2018-09-24T20:52:32.951Z,73.90
2018-09-24T20:55:05.665Z,72.31
2018-09-24T20:57:38.428Z,72.35
2018-09-24T21:00:11.363Z,72.31
2018-09-24T21:02:44.061Z,72.67
2018-09-24T21:05:16.901Z,72.46
2018-09-24T21:07:49.571Z,71.78
2018-09-24T21:10:22.312Z,72.56
2018-09-24T21:12:55.000Z,72.48
2018-09-24T21:15:27.723Z,72.99
2018-09-24T21:18:00.465Z,73.14
2018-09-24T21:20:33.100Z,73.27
2018-09-24T21:23:05.762Z,73.38
2018-09-24T21:25:38.383Z,74.36
2018-09-24T21:28:11.345Z,74.62
2018-09-24T21:30:43.912Z,74.33
2018-09-24T21:33:16.503Z,74.06
2018-09-24T21:35:49.197Z,74.83
2018-09-24T21:38:21.636Z,75.19
2018-09-24T21:40:55.307Z,74.05
2018-09-24T21:43:29.047Z,74.71
2018-09-24T21:46:01.804Z,74.74
2018-09-24T21:48:34.280Z,75.91
2018-09-24T21:51:07.020Z,75.82
2018-09-24T21:53:40.692Z,76.81
2018-09-24T21:56:13.556Z,75.90
2018-09-24T21:58:46.320Z,76.34
2018-09-24T22:01:19.051Z,77.11
2018-09-24T22:03:51.672Z,77.70
2018-09-24T22:06:24.363Z,77.92
2018-09-24T22:08:57.080Z,77.05
2018-09-24T22:11:29.819Z,77.61
2018-09-24T22:14:02.563Z,76.89
2018-09-24T22:16:35.287Z,76.36
2018-09-24T22:19:08.098Z,76.38
2018-09-24T22:21:40.691Z,76.19
2018-09-24T22:24:13.652Z,75.97
2018-09-24T22:26:46.305Z,76.33
2018-09-24T22:29:18.955Z,77.21
2018-09-24T22:31:51.477Z,77.31
2018-09-24T22:34:24.139Z,77.57
2018-09-24T22:36:56.868Z,78.25
2018-09-24T22:39:29.444Z,78.38
2018-09-24T22:42:02.088Z,77.41
2018-09-24T22:44:34.552Z,78.02
2018-09-24T22:47:07.340Z,77.52
2018-09-24T22:49:42.092Z,75.72
2018-09-24T22:52:15.731Z,75.46
2018-09-24T22:54:48.316Z,76.56
2018-09-24T22:57:22.012Z,77.28
2018-09-24T22:59:55.683Z,78.18
2018-09-24T23:02:28.447Z,78.12
2018-09-24T23:05:01.134Z,78.18
2018-09-24T23:07:33.699Z,77.85
2018-09-24T23:10:06.368Z,77.19
2018-09-24T23:12:39.115Z,77.05
2018-09-24T23:15:11.752Z,76.51
2018-09-24T23:17:44.292Z,76.36
2018-09-24T23:20:16.936Z,76.66
2018-09-24T23:22:49.580Z,76.78
2018-09-24T23:25:22.111Z,76.78
2018-09-24T23:27:54.731Z,76.25
2018-09-24T23:30:27.375Z,76.20
2018-09-24T23:33:00.139Z,74.44
2018-09-24T23:35:32.727Z,75.72
2018-09-24T23:38:05.443Z,75.63
2018-09-24T23:40:38.216Z,75.65
2018-09-24T23:43:11.181Z,75.69
2018-09-24T23:45:46.966Z,73.10
2018-09-24T23:48:19.665Z,74.53
2018-09-24T23:50:52.380Z,75.13
2018-09-24T23:53:25.075Z,75.37
2018-09-24T23:55:57.858Z,75.28
2018-09-24T23:58:32.625Z,75.78
